Lupton City, TN (37351)

8:37 PM EDT on October 01, 2014 (GMT -0400)
Lakeshore | Change Station
CLOSE
Current Station
Personal Weather Station
Location: Chattanooga, TN
Elevation: 735 ft
Nearby Weather Stations

Elev 735 ft 35.11 °N, 85.21 °W | Updated 3 seconds ago

Partly Cloudy
Partly Cloudy
76.1 °F
Feels Like 78 °F
N
0.0
Wind Variable Wind from North
Gusts 0.0 mph

Today
High -- | Low -- °F
--% Chance of Precip.
Yesterday
High -- | Low -- °F
Precip. -- in
7:35 AM 7:24 PM
First Quarter, 52% visible
Pressure 29.89 in
Visibility 10.0 miles
Clouds Few 6500 ft
Scattered Clouds 25000 ft
Heat Index 78 °F
Dew Point 64 °F
Humidity 65%
Rainfall 0.00 in
Snow Depth Not available.
UV 0 out of 12
Pollen 4.80 out of 12
Ozone Good
PM2.5 Moderate
Flu Activity Not available.
METAR KCHA 302353Z 00000KT 10SM FEW065 SCT250 24/16 A2990 RMK AO2 SLP120 T02440161 10294 20244 53003

More Conditions Fewer Conditions

Pressure 29.89 in
Visibility 10.0 miles
Clouds Few 6500 ft
Scattered Clouds 25000 ft
Heat Index 78 °F
Dew Point 64 °F
Humidity 65%
Rainfall 0.00 in
Snow Depth Not available.
UV 0 out of 12
Pollen 4.80 out of 12
Ozone Good
PM2.5 Moderate
Flu Activity Not available.
METAR KCHA 302353Z 00000KT 10SM FEW065 SCT250 24/16 A2990 RMK AO2 SLP120 T02440161 10294 20244 53003

More Conditions Fewer Conditions

10-Day Weather Forecast

Almanac

Astronomy

Oct. 01, 2014 Rise Set
Actual Time 7:35 AM EDT 7:24 PM EDT
Civil Twilight 7:10 AM EDT 7:50 PM EDT
Nautical Twilight 6:41 AM EDT 8:19 PM EDT
Astronomical Twilight 6:11 AM EDT 8:49 PM EDT
Moon 2:26 PM EDT (10/1) 12:05 AM EDT (10/1)
Length of Visible Light 12h 39m
Length of Day
11h 49m
Tomorrow will be 2m 10s shorter.
First Quarter, 52% of the Moon is Illuminated
Today
First Quarter
Oct 8
Full
Oct 15
Last Quarter
Oct 23
New
Oct 30
First Quarter

Today's Extremes

State Highs State Lows

Community

WunderPhotos

Upload Photos

1,758,101 photos uploaded!

WunderBlogs® & News

Nearby

Air Quality

  Air Quality AQ Index Pollutant
Yesterday Good
PM2.5
Yesterday Good
OZONE
Current Moderate
PM2.5
Current Good
OZONE
Wednesday Moderate
PM2.5
Wednesday Good
OZONE
Thursday Moderate
PM2.5
Thursday Good
OZONE

Snow Depth

Station Depth Elevation
No new snow has been reported.

Earthquake Activity

City Distance Mag. Time & Date
No recent earthquake activity has been reported nearby.
Minimum magnitude displayed is 2.5.

Coastal Water Temperatures

Place Temperature
No Stations Reporting

Nearby Weather Stations